createdAt,value
2018-04-10T00:02:20.489Z,18.90
2018-04-10T00:04:48.704Z,18.90
2018-04-10T00:07:16.929Z,19.00
2018-04-10T00:09:45.151Z,19.00
2018-04-10T00:12:13.377Z,19.00
2018-04-10T00:14:41.620Z,19.00
2018-04-10T00:17:09.828Z,19.00
2018-04-10T00:19:38.834Z,19.00
2018-04-10T00:22:07.045Z,18.90
2018-04-10T00:24:35.264Z,19.00
2018-04-10T00:27:04.256Z,19.00
2018-04-10T00:29:32.477Z,18.90
2018-04-10T00:32:00.704Z,18.90
2018-04-10T00:34:28.929Z,18.90
2018-04-10T00:36:57.205Z,19.00
2018-04-10T00:39:26.156Z,19.00
2018-04-10T00:41:54.373Z,18.90
2018-04-10T00:44:22.596Z,18.90
2018-04-10T00:46:50.821Z,19.00
2018-04-10T00:49:19.051Z,18.90
2018-04-10T00:51:47.268Z,18.90
2018-04-10T00:54:15.500Z,18.90
2018-04-10T00:56:44.476Z,18.90
2018-04-10T00:59:12.702Z,18.90
2018-04-10T01:01:41.709Z,18.90
2018-04-10T01:04:10.702Z,18.80
2018-04-10T01:06:39.699Z,18.90
2018-04-10T01:09:07.912Z,18.90
2018-04-10T01:11:36.132Z,19.00
2018-04-10T01:14:04.361Z,18.90
2018-04-10T01:16:32.578Z,19.00
2018-04-10T01:19:00.829Z,19.00
2018-04-10T01:21:29.041Z,19.00
2018-04-10T01:23:58.028Z,19.00
2018-04-10T01:26:26.240Z,19.00
2018-04-10T01:28:55.228Z,19.00
2018-04-10T01:31:23.452Z,19.00
2018-04-10T01:33:51.677Z,19.00
2018-04-10T01:36:19.904Z,18.90
2018-04-10T01:38:48.892Z,18.90
2018-04-10T01:41:17.125Z,18.90
2018-04-10T01:43:45.350Z,18.90
2018-04-10T01:46:13.575Z,19.00
2018-04-10T01:48:42.573Z,18.90
2018-04-10T01:51:11.585Z,18.80
2018-04-10T01:53:39.837Z,18.80
2018-04-10T01:56:08.067Z,18.90
2018-04-10T01:58:37.051Z,19.00
2018-04-10T02:01:05.277Z,18.90
2018-04-10T02:03:33.491Z,19.00
2018-04-10T02:06:01.716Z,18.90
2018-04-10T02:08:29.929Z,18.90
2018-04-10T02:10:58.152Z,19.00
2018-04-10T02:13:26.372Z,18.90
2018-04-10T02:15:54.653Z,19.00
2018-04-10T02:18:22.836Z,18.90
2018-04-10T02:20:51.052Z,18.90
2018-04-10T02:23:20.041Z,19.00
2018-04-10T02:25:48.253Z,18.90
2018-04-10T02:28:17.248Z,18.90
2018-04-10T02:30:46.233Z,18.90
2018-04-10T02:33:14.456Z,18.90
2018-04-10T02:35:43.447Z,18.90
2018-04-10T02:38:12.451Z,18.90
2018-04-10T02:40:42.181Z,18.90
2018-04-10T02:43:11.226Z,18.90
2018-04-10T02:45:39.445Z,18.90
2018-04-10T02:48:07.661Z,18.90
2018-04-10T02:50:35.895Z,18.90
2018-04-10T02:53:04.112Z,18.80
2018-04-10T02:55:32.356Z,18.90
2018-04-10T02:58:00.572Z,18.90
2018-04-10T03:00:28.800Z,18.80
2018-04-10T03:02:57.793Z,18.90
2018-04-10T03:05:26.016Z,18.90
2018-04-10T03:07:54.256Z,18.90
2018-04-10T03:10:22.461Z,18.80
2018-04-10T03:12:50.730Z,18.90
2018-04-10T03:15:18.952Z,18.90
2018-04-10T03:17:47.953Z,18.90
2018-04-10T03:20:16.169Z,18.80
2018-04-10T03:22:44.408Z,18.90
2018-04-10T03:25:12.632Z,18.90
2018-04-10T03:27:40.886Z,18.90
2018-04-10T03:30:09.109Z,18.80
2018-04-10T03:32:37.337Z,18.80
2018-04-10T03:35:05.570Z,18.50
2018-04-10T03:37:34.544Z,18.70
2018-04-10T03:40:02.779Z,18.70
2018-04-10T03:42:30.997Z,18.70
2018-04-10T03:44:59.232Z,18.80
2018-04-10T03:47:28.225Z,18.80
2018-04-10T03:49:56.454Z,18.80
2018-04-10T03:52:24.669Z,18.80
2018-04-10T03:54:52.880Z,18.80
2018-04-10T03:57:21.104Z,18.80
2018-04-10T03:59:49.324Z,18.80
2018-04-10T04:02:17.560Z,18.80
2018-04-10T04:04:45.864Z,18.80
2018-04-10T04:07:14.854Z,18.60
2018-04-10T04:09:43.081Z,18.60
2018-04-10T04:12:11.352Z,18.60
2018-04-10T04:14:40.393Z,18.40
2018-04-10T04:17:20.338Z,18.30
2018-04-10T04:20:00.399Z,18.60
2018-04-10T04:22:38.478Z,18.80
2018-04-10T04:25:06.712Z,18.60
2018-04-10T04:27:34.929Z,18.30
2018-04-10T04:30:03.157Z,18.40
2018-04-10T04:32:32.144Z,18.00
2018-04-10T04:35:00.371Z,18.00
2018-04-10T04:37:28.597Z,18.00
2018-04-10T04:39:56.821Z,18.40
2018-04-10T04:42:25.840Z,18.80
2018-04-10T04:44:54.839Z,18.70
2018-04-10T04:47:23.080Z,18.80
2018-04-10T04:49:51.313Z,18.70
2018-04-10T04:52:20.302Z,18.80
2018-04-10T04:54:48.529Z,18.80
2018-04-10T04:57:16.735Z,18.70
2018-04-10T04:59:45.097Z,18.80
2018-04-10T05:02:13.321Z,18.80
2018-04-10T05:04:41.551Z,18.80
2018-04-10T05:07:09.785Z,18.70
2018-04-10T05:09:38.059Z,18.80
2018-04-10T05:12:07.024Z,18.80
2018-04-10T05:14:35.268Z,18.80
2018-04-10T05:17:03.486Z,18.80
2018-04-10T05:19:31.706Z,18.80
2018-04-10T05:22:00.701Z,18.80
2018-04-10T05:24:28.920Z,18.80
2018-04-10T05:26:57.145Z,18.70
2018-04-10T05:29:25.372Z,18.70
2018-04-10T05:31:54.376Z,18.70
2018-04-10T05:34:23.364Z,18.70
2018-04-10T05:36:51.621Z,18.60
2018-04-10T05:39:19.826Z,18.60
2018-04-10T05:41:48.045Z,18.70
2018-04-10T05:44:17.078Z,18.70
2018-04-10T05:46:45.341Z,18.70
2018-04-10T05:49:13.567Z,18.70
2018-04-10T05:51:41.830Z,18.80
2018-04-10T05:54:10.150Z,18.70
2018-04-10T05:56:38.464Z,18.70
2018-04-10T05:59:06.690Z,18.60
2018-04-10T06:01:35.682Z,18.70
2018-04-10T06:04:03.909Z,18.60
2018-04-10T06:06:32.129Z,18.70
2018-04-10T06:09:00.351Z,18.70
2018-04-10T06:11:29.348Z,18.60
2018-04-10T06:13:57.562Z,18.60
2018-04-10T06:16:25.794Z,18.70
2018-04-10T06:18:54.013Z,18.70
2018-04-10T06:21:22.268Z,18.70
2018-04-10T06:23:50.493Z,18.40
2018-04-10T06:26:18.705Z,18.50
2018-04-10T06:28:47.701Z,18.60
2018-04-10T06:31:16.696Z,18.60
2018-04-10T06:33:44.978Z,18.60
2018-04-10T06:36:13.205Z,18.70
2018-04-10T06:38:41.518Z,18.50
2018-04-10T06:41:09.777Z,18.40
2018-04-10T06:43:37.999Z,18.60
2018-04-10T06:46:06.226Z,18.50
2018-04-10T06:48:34.449Z,18.60
2018-04-10T06:51:02.658Z,18.60
2018-04-10T06:53:30.881Z,18.70
2018-04-10T06:55:59.113Z,18.60
2018-04-10T06:58:27.337Z,18.60
2018-04-10T07:00:55.562Z,18.60
2018-04-10T07:03:23.791Z,18.50
2018-04-10T07:05:52.017Z,18.60
2018-04-10T07:08:20.228Z,18.60
2018-04-10T07:10:49.258Z,18.60
2018-04-10T07:13:17.475Z,18.60
2018-04-10T07:15:45.684Z,18.60
2018-04-10T07:18:13.936Z,18.60
2018-04-10T07:20:42.191Z,18.60
2018-04-10T07:23:11.229Z,18.60
2018-04-10T07:25:39.480Z,18.60
2018-04-10T07:28:08.477Z,18.60
2018-04-10T07:30:37.472Z,18.60
2018-04-10T07:33:05.705Z,18.60
2018-04-10T07:35:33.945Z,18.50
2018-04-10T07:38:02.144Z,18.60
2018-04-10T07:40:31.196Z,18.70
2018-04-10T07:43:00.140Z,18.60
2018-04-10T07:45:28.354Z,18.60
2018-04-10T07:47:57.353Z,18.60
2018-04-10T07:50:25.565Z,18.60
2018-04-10T07:52:53.777Z,18.60
2018-04-10T07:55:22.032Z,18.60
2018-04-10T07:57:51.008Z,18.60
2018-04-10T08:00:19.243Z,18.60
2018-04-10T08:02:47.469Z,18.50
2018-04-10T08:05:16.452Z,18.60
2018-04-10T08:07:44.727Z,18.60
2018-04-10T08:10:13.718Z,18.60
2018-04-10T08:12:41.967Z,18.60
2018-04-10T08:15:10.253Z,18.50
2018-04-10T08:17:38.522Z,18.60
2018-04-10T08:20:06.728Z,18.60
2018-04-10T08:22:34.944Z,18.60
2018-04-10T08:25:03.946Z,18.60
2018-04-10T08:27:32.981Z,18.60
2018-04-10T08:30:01.205Z,18.60
2018-04-10T08:32:29.421Z,18.60
2018-04-10T08:34:58.421Z,18.60
2018-04-10T08:37:26.632Z,18.60
2018-04-10T08:39:54.857Z,18.60
2018-04-10T08:42:23.069Z,18.60
2018-04-10T08:44:51.315Z,18.60
2018-04-10T08:47:19.517Z,18.60
2018-04-10T08:49:47.748Z,18.60
2018-04-10T08:52:15.956Z,18.60
2018-04-10T08:54:44.177Z,18.60
2018-04-10T08:57:12.400Z,18.60
2018-04-10T08:59:40.639Z,18.60
2018-04-10T09:02:08.914Z,18.60
2018-04-10T09:04:37.101Z,18.60
2018-04-10T09:07:05.374Z,18.60
2018-04-10T09:09:33.634Z,18.60
2018-04-10T09:12:02.233Z,18.60
2018-04-10T09:14:30.437Z,18.60
2018-04-10T09:16:58.673Z,18.60
2018-04-10T09:19:26.876Z,18.60
2018-04-10T09:21:55.101Z,18.60
2018-04-10T09:24:23.321Z,18.60
2018-04-10T09:26:51.541Z,18.60
2018-04-10T09:29:19.777Z,18.60
2018-04-10T09:31:48.750Z,18.60
2018-04-10T09:34:16.964Z,18.60
2018-04-10T09:36:45.944Z,18.60
2018-04-10T09:39:14.182Z,18.60
2018-04-10T09:41:42.417Z,18.60
2018-04-10T09:44:10.637Z,18.60
2018-04-10T09:46:39.648Z,18.50
2018-04-10T09:49:08.642Z,18.60
2018-04-10T09:51:37.618Z,18.60
2018-04-10T09:54:05.829Z,18.50
2018-04-10T09:56:34.045Z,18.60
2018-04-10T09:59:02.261Z,18.60
2018-04-10T10:01:30.481Z,18.60
2018-04-10T10:03:58.697Z,18.50
2018-04-10T10:06:27.696Z,18.50
2018-04-10T10:08:56.680Z,18.70
2018-04-10T10:11:25.713Z,18.70
2018-04-10T10:13:54.693Z,18.60
2018-04-10T10:16:22.917Z,18.60
2018-04-10T10:18:51.129Z,18.50
2018-04-10T10:21:19.348Z,18.60
2018-04-10T10:23:47.581Z,18.50
2018-04-10T10:26:15.805Z,18.50
2018-04-10T10:28:44.049Z,18.50
2018-04-10T10:31:13.124Z,18.60
2018-04-10T10:33:41.328Z,18.60
2018-04-10T10:36:09.560Z,18.60
2018-04-10T10:38:37.794Z,18.60
2018-04-10T10:41:06.015Z,18.50
2018-04-10T10:43:34.224Z,18.60
2018-04-10T10:46:02.438Z,18.50
2018-04-10T10:48:30.661Z,18.50
2018-04-10T10:50:59.653Z,18.50
2018-04-10T10:53:28.649Z,18.60
2018-04-10T10:55:56.869Z,18.60
2018-04-10T10:58:25.083Z,18.50
2018-04-10T11:00:53.309Z,18.50
2018-04-10T11:03:21.534Z,18.50
2018-04-10T11:05:49.769Z,18.50
2018-04-10T11:08:18.757Z,18.60
2018-04-10T11:10:46.974Z,18.60
2018-04-10T11:13:15.259Z,18.70
2018-04-10T11:15:43.525Z,18.60
2018-04-10T11:18:11.770Z,18.60
2018-04-10T11:20:40.764Z,18.60
2018-04-10T11:23:09.009Z,18.60
2018-04-10T11:25:37.229Z,18.60
2018-04-10T11:28:05.455Z,18.70
2018-04-10T11:30:33.664Z,18.70
2018-04-10T11:33:01.898Z,18.60
2018-04-10T11:35:30.113Z,18.60
2018-04-10T11:37:58.353Z,18.60
2018-04-10T11:40:26.549Z,18.50
2018-04-10T11:42:54.777Z,18.60
2018-04-10T11:45:23.012Z,18.60
2018-04-10T11:47:51.220Z,18.60
2018-04-10T11:50:19.440Z,18.60
2018-04-10T11:52:47.654Z,18.70
2018-04-10T11:55:15.905Z,18.60
2018-04-10T11:57:44.897Z,18.60
2018-04-10T12:00:13.144Z,18.50
2018-04-10T12:02:41.362Z,18.70
2018-04-10T12:05:09.600Z,18.70
2018-04-10T12:07:37.819Z,18.60
2018-04-10T12:10:06.036Z,18.60
2018-04-10T12:12:35.056Z,18.60
2018-04-10T12:15:03.245Z,18.60
2018-04-10T12:17:32.225Z,18.60
2018-04-10T12:20:00.453Z,18.60
2018-04-10T12:22:28.702Z,18.60
2018-04-10T12:24:56.904Z,18.60
2018-04-10T12:27:25.900Z,18.60
2018-04-10T12:29:54.206Z,18.60
2018-04-10T12:32:23.225Z,18.60
2018-04-10T12:34:51.457Z,18.60
2018-04-10T12:37:19.677Z,18.60
2018-04-10T12:39:47.892Z,18.70
2018-04-10T12:42:16.113Z,18.60
2018-04-10T12:44:44.356Z,18.60
2018-04-10T12:47:13.340Z,18.60
2018-04-10T12:49:41.583Z,18.60
2018-04-10T12:52:09.804Z,18.60
2018-04-10T12:54:38.037Z,18.60
2018-04-10T12:57:06.261Z,18.70
2018-04-10T12:59:34.468Z,18.60
2018-04-10T13:02:02.714Z,18.70
2018-04-10T13:04:30.936Z,18.90
2018-04-10T13:06:59.148Z,18.80
2018-04-10T13:09:28.120Z,18.70
2018-04-10T13:11:56.370Z,18.70
2018-04-10T13:14:25.347Z,18.70
2018-04-10T13:16:54.333Z,18.70
2018-04-10T13:19:22.556Z,18.70
2018-04-10T13:21:50.789Z,18.60
2018-04-10T13:24:19.053Z,18.60
2018-04-10T13:26:47.773Z,18.60
2018-04-10T13:29:16.028Z,18.60
2018-04-10T13:31:44.243Z,18.70
2018-04-10T13:34:12.512Z,18.60
2018-04-10T13:36:40.817Z,18.70
2018-04-10T13:39:09.076Z,18.60
2018-04-10T13:41:38.048Z,18.80
2018-04-10T13:44:06.292Z,18.80
2018-04-10T13:46:34.610Z,18.90
2018-04-10T13:49:02.856Z,18.90
2018-04-10T13:51:31.091Z,18.80
2018-04-10T13:53:59.308Z,18.70
2018-04-10T13:56:28.293Z,18.70
2018-04-10T13:58:56.515Z,18.70
2018-04-10T14:01:25.506Z,18.70
2018-04-10T14:03:53.761Z,18.70
2018-04-10T14:06:22.024Z,18.70
2018-04-10T14:08:50.233Z,18.70
2018-04-10T14:11:18.457Z,18.70
2018-04-10T14:13:47.448Z,18.70
2018-04-10T14:16:15.665Z,18.70
2018-04-10T14:18:44.684Z,18.70
2018-04-10T14:21:12.945Z,18.70
2018-04-10T14:23:42.093Z,18.70
2018-04-10T14:26:10.338Z,18.70
2018-04-10T14:28:38.600Z,18.70
2018-04-10T14:31:06.829Z,18.70
2018-04-10T14:33:35.821Z,18.70
2018-04-10T14:36:04.804Z,18.70
2018-04-10T14:38:33.020Z,18.80
2018-04-10T14:41:02.021Z,18.70
2018-04-10T14:43:30.232Z,18.70
2018-04-10T14:45:58.653Z,18.70
2018-04-10T14:48:27.604Z,18.80
2018-04-10T14:50:55.828Z,18.70
2018-04-10T14:53:24.060Z,18.70
2018-04-10T14:55:52.277Z,18.80
2018-04-10T14:58:21.268Z,18.80
2018-04-10T15:00:49.494Z,18.80
2018-04-10T15:03:17.721Z,18.70
2018-04-10T15:05:45.968Z,18.70
2018-04-10T15:08:14.189Z,18.80
2018-04-10T15:10:42.461Z,18.80
2018-04-10T15:13:10.826Z,18.80
2018-04-10T15:15:39.101Z,18.80
2018-04-10T15:18:08.078Z,18.80
2018-04-10T15:20:36.294Z,18.80
2018-04-10T15:23:05.281Z,18.70
2018-04-10T15:25:33.517Z,18.70
2018-04-10T15:28:01.757Z,18.80
2018-04-10T15:30:29.964Z,18.80
2018-04-10T15:32:59.023Z,18.80
2018-04-10T15:35:27.239Z,18.80
2018-04-10T15:37:55.478Z,18.80
2018-04-10T15:40:23.704Z,18.80
2018-04-10T15:42:51.925Z,18.80
2018-04-10T15:45:20.928Z,18.80
2018-04-10T15:47:49.193Z,18.80
2018-04-10T15:50:17.509Z,18.80
2018-04-10T15:52:46.504Z,18.80
2018-04-10T15:55:14.723Z,18.80
2018-04-10T15:57:42.962Z,18.80
2018-04-10T16:00:11.290Z,18.80
2018-04-10T16:02:39.533Z,18.80
2018-04-10T16:05:07.748Z,18.80
2018-04-10T16:07:36.740Z,18.80
2018-04-10T16:10:04.952Z,18.80
2018-04-10T16:12:33.182Z,18.80
2018-04-10T16:15:01.409Z,18.80
2018-04-10T16:17:30.397Z,18.80
2018-04-10T16:19:58.622Z,18.80
2018-04-10T16:22:26.844Z,18.80
2018-04-10T16:24:55.102Z,18.70
2018-04-10T16:27:24.138Z,18.80
2018-04-10T16:29:52.374Z,18.80
2018-04-10T16:32:21.353Z,18.80
2018-04-10T16:34:49.572Z,18.80
2018-04-10T16:37:18.567Z,18.80
2018-04-10T16:39:46.784Z,18.80
2018-04-10T16:42:15.029Z,18.80
2018-04-10T16:44:43.259Z,18.80
2018-04-10T16:47:12.260Z,18.80
2018-04-10T16:49:41.288Z,18.80
2018-04-10T16:52:11.127Z,18.80
2018-04-10T16:54:39.342Z,18.80
2018-04-10T16:57:08.325Z,18.90
2018-04-10T16:59:36.536Z,18.90
2018-04-10T17:02:04.772Z,18.80
2018-04-10T17:04:32.997Z,18.90
2018-04-10T17:07:01.213Z,18.90
2018-04-10T17:09:29.489Z,18.90
2018-04-10T17:11:57.707Z,18.90
2018-04-10T17:14:26.693Z,18.90
2018-04-10T17:16:54.921Z,18.90
2018-04-10T17:19:23.149Z,18.90
2018-04-10T17:21:51.436Z,18.80
2018-04-10T17:24:19.665Z,18.80
2018-04-10T17:26:48.678Z,18.90
2018-04-10T17:29:17.668Z,18.80
2018-04-10T17:31:46.674Z,18.90
2018-04-10T17:34:14.921Z,18.80
2018-04-10T17:36:43.161Z,18.60
2018-04-10T17:39:12.165Z,18.70
2018-04-10T17:41:41.169Z,18.80
2018-04-10T17:44:10.165Z,18.80
2018-04-10T17:46:39.209Z,18.80
2018-04-10T17:49:07.423Z,18.80
2018-04-10T17:51:35.657Z,18.90
2018-04-10T17:54:04.636Z,18.90
2018-04-10T17:56:32.863Z,18.90
2018-04-10T17:59:01.842Z,18.80
2018-04-10T18:01:30.057Z,18.80
2018-04-10T18:03:58.285Z,18.80
2018-04-10T18:06:26.496Z,18.90
2018-04-10T18:08:54.731Z,18.90
2018-04-10T18:11:22.953Z,18.80
2018-04-10T18:13:51.156Z,18.90
2018-04-10T18:16:19.385Z,18.60
2018-04-10T18:18:47.612Z,18.80
2018-04-10T18:21:16.126Z,18.90
2018-04-10T18:23:44.309Z,18.80
2018-04-10T18:26:12.571Z,18.70
2018-04-10T18:28:40.793Z,18.80
2018-04-10T18:31:09.032Z,18.80
2018-04-10T18:33:37.245Z,18.90
2018-04-10T18:36:05.497Z,18.90
2018-04-10T18:38:34.480Z,18.80
2018-04-10T18:41:03.481Z,18.80
2018-04-10T18:43:31.740Z,18.90
2018-04-10T18:45:59.953Z,18.90
2018-04-10T18:48:28.198Z,18.90
2018-04-10T18:50:56.402Z,18.80
2018-04-10T18:53:24.627Z,18.60
2018-04-10T18:55:53.616Z,18.80
2018-04-10T18:58:21.831Z,18.80
2018-04-10T19:00:50.801Z,18.90
2018-04-10T19:03:19.033Z,18.80
2018-04-10T19:05:47.249Z,18.90
2018-04-10T19:08:15.521Z,18.90
2018-04-10T19:10:43.764Z,18.90
2018-04-10T19:13:12.013Z,18.90
2018-04-10T19:15:40.246Z,18.90
2018-04-10T19:18:08.479Z,18.90
2018-04-10T19:20:36.720Z,18.90
2018-04-10T19:23:04.958Z,18.90
2018-04-10T19:25:33.169Z,18.90
2018-04-10T19:28:01.412Z,18.80
2018-04-10T19:30:29.648Z,18.80
2018-04-10T19:32:57.865Z,18.90
2018-04-10T19:35:26.854Z,18.60
2018-04-10T19:37:55.101Z,18.60
2018-04-10T19:40:23.324Z,18.50
2018-04-10T19:42:51.545Z,18.80
2018-04-10T19:45:19.780Z,18.80
2018-04-10T19:47:48.007Z,18.80
2018-04-10T19:50:17.077Z,18.60
2018-04-10T19:52:45.312Z,18.60
2018-04-10T19:55:14.317Z,18.70
2018-04-10T19:57:43.317Z,18.70
2018-04-10T20:00:12.377Z,18.80
2018-04-10T20:02:40.604Z,18.70
2018-04-10T20:05:09.601Z,18.00
2018-04-10T20:07:37.830Z,18.00
2018-04-10T20:10:06.064Z,18.40
2018-04-10T20:12:34.315Z,18.50
2018-04-10T20:15:02.546Z,18.40
2018-04-10T20:17:30.756Z,18.60
2018-04-10T20:19:58.992Z,18.80
2018-04-10T20:22:27.218Z,17.90
2018-04-10T20:24:55.465Z,18.40
2018-04-10T20:27:23.756Z,18.40
2018-04-10T20:29:52.718Z,18.00
2018-04-10T20:32:21.712Z,18.60
2018-04-10T20:34:49.928Z,18.50
2018-04-10T20:37:18.153Z,18.80
2018-04-10T20:39:46.377Z,18.80
2018-04-10T20:42:14.636Z,18.70
2018-04-10T20:44:42.873Z,18.80
2018-04-10T20:47:11.870Z,18.30
2018-04-10T20:49:40.134Z,18.30
2018-04-10T20:52:08.389Z,18.50
2018-04-10T20:54:36.596Z,18.50
2018-04-10T20:57:04.809Z,18.60
2018-04-10T20:59:33.028Z,18.80
2018-04-10T21:02:01.245Z,18.80
2018-04-10T21:04:29.477Z,18.80
2018-04-10T21:06:57.740Z,18.70
2018-04-10T21:09:25.961Z,18.70
2018-04-10T21:11:54.949Z,18.70
2018-04-10T21:14:23.160Z,18.70
2018-04-10T21:16:52.153Z,18.20
2018-04-10T21:19:20.377Z,18.20
2018-04-10T21:21:48.593Z,18.40
2018-04-10T21:24:17.650Z,18.40
2018-04-10T21:26:45.873Z,18.50
2018-04-10T21:29:15.705Z,18.80
2018-04-10T21:31:43.954Z,18.80
2018-04-10T21:34:12.965Z,18.50
2018-04-10T21:36:41.953Z,18.50
2018-04-10T21:39:10.186Z,18.40
2018-04-10T21:41:38.420Z,18.60
2018-04-10T21:44:06.628Z,18.30
2018-04-10T21:46:35.613Z,18.40
2018-04-10T21:49:03.841Z,18.40
2018-04-10T21:51:32.064Z,18.50
2018-04-10T21:54:00.284Z,17.60
2018-04-10T21:56:28.516Z,18.20
2018-04-10T21:58:56.741Z,18.40
2018-04-10T22:01:24.961Z,18.70
2018-04-10T22:03:53.954Z,18.80
2018-04-10T22:06:22.960Z,18.70
2018-04-10T22:08:51.973Z,18.50
2018-04-10T22:11:20.969Z,18.40
2018-04-10T22:13:49.963Z,18.00
2018-04-10T22:16:18.200Z,18.00
2018-04-10T22:18:46.404Z,18.20
2018-04-10T22:21:14.665Z,18.10
2018-04-10T22:23:42.905Z,18.50
2018-04-10T22:26:11.148Z,18.10
2018-04-10T22:28:39.380Z,17.80
2018-04-10T22:31:07.589Z,17.80
2018-04-10T22:33:36.616Z,18.30
2018-04-10T22:36:04.841Z,18.20
2018-04-10T22:38:33.061Z,18.50
2018-04-10T22:41:01.290Z,18.70
2018-04-10T22:43:29.513Z,18.70
2018-04-10T22:45:57.721Z,18.40
2018-04-10T22:48:25.965Z,18.40
2018-04-10T22:50:54.173Z,18.70
2018-04-10T22:53:22.397Z,18.50
2018-04-10T22:55:50.618Z,18.30
2018-04-10T22:58:18.867Z,18.50
2018-04-10T23:00:49.408Z,18.30
2018-04-10T23:03:17.672Z,18.20
2018-04-10T23:05:45.893Z,18.70
2018-04-10T23:08:14.882Z,18.10
2018-04-10T23:10:43.106Z,18.20
2018-04-10T23:13:11.351Z,18.10
2018-04-10T23:15:39.605Z,17.70
2018-04-10T23:18:07.869Z,18.10
2018-04-10T23:20:36.190Z,18.40
2018-04-10T23:23:04.415Z,18.30
2018-04-10T23:25:32.646Z,18.50
2018-04-10T23:28:00.867Z,18.50
2018-04-10T23:30:29.098Z,18.20
2018-04-10T23:32:57.316Z,17.80
2018-04-10T23:35:25.529Z,18.00
2018-04-10T23:37:53.777Z,17.70
2018-04-10T23:40:22.766Z,18.20
2018-04-10T23:42:50.980Z,18.20
2018-04-10T23:45:19.234Z,18.00
2018-04-10T23:47:47.451Z,18.10
2018-04-10T23:50:16.442Z,18.00
2018-04-10T23:52:44.662Z,18.00
2018-04-10T23:55:12.904Z,18.40
2018-04-10T23:57:41.117Z,18.60
